createdAt,value
2023-07-07T00:01:14.860Z,100862.69
2023-07-07T00:03:41.071Z,100867.44
2023-07-07T00:06:07.258Z,100877.25
2023-07-07T00:08:33.493Z,100870.47
2023-07-07T00:11:00.262Z,100874.03
2023-07-07T00:13:26.760Z,100870.81
2023-07-07T00:15:53.003Z,100865.94
2023-07-07T00:18:19.178Z,100871.66
2023-07-07T00:20:45.390Z,100872.78
2023-07-07T00:23:11.929Z,100876.72
2023-07-07T00:25:38.154Z,100875.09
2023-07-07T00:28:04.384Z,100883.41
2023-07-07T00:30:30.706Z,100875.53
2023-07-07T00:32:56.999Z,100882.28
2023-07-07T00:35:23.246Z,100877.97
2023-07-07T00:37:49.442Z,100874.41
2023-07-07T00:40:16.668Z,100874.50
2023-07-07T00:42:42.960Z,100877.28
2023-07-07T00:45:09.162Z,100881.50
2023-07-07T00:47:35.644Z,100883.22
2023-07-07T00:50:01.887Z,100891.34
2023-07-07T00:52:28.062Z,100883.69
2023-07-07T00:54:54.244Z,100891.66
2023-07-07T00:57:20.446Z,100891.25
2023-07-07T00:59:46.694Z,100899.44
2023-07-07T01:02:12.956Z,100894.78
2023-07-07T01:04:39.340Z,100889.53
2023-07-07T01:07:05.612Z,100910.53
2023-07-07T01:09:31.831Z,100897.41
2023-07-07T01:11:58.041Z,100902.47
2023-07-07T01:14:24.262Z,100898.22
2023-07-07T01:16:50.590Z,100905.75
2023-07-07T01:19:16.874Z,100907.50
2023-07-07T01:21:43.051Z,100904.28
2023-07-07T01:24:09.269Z,100913.25
2023-07-07T01:26:35.502Z,100910.94
2023-07-07T01:29:01.687Z,100905.03
2023-07-07T01:31:27.962Z,100902.63
2023-07-07T01:33:54.267Z,100904.53
2023-07-07T01:36:20.574Z,100905.81
2023-07-07T01:38:46.772Z,100900.56
2023-07-07T01:41:13.001Z,100900.50
2023-07-07T01:43:39.236Z,100904.78
2023-07-07T01:46:05.502Z,100905.72
2023-07-07T01:48:31.715Z,100904.09
2023-07-07T01:50:58.183Z,100906.47
2023-07-07T01:53:24.596Z,100908.47
2023-07-07T01:55:50.812Z,100903.19
2023-07-07T01:58:17.024Z,100908.44
2023-07-07T02:00:43.373Z,100900.69
2023-07-07T02:03:09.649Z,100906.19
2023-07-07T02:05:36.045Z,100903.47
2023-07-07T02:08:02.216Z,100908.81
2023-07-07T02:10:28.491Z,100902.09
2023-07-07T02:12:54.744Z,100904.72
2023-07-07T02:15:20.989Z,100905.41
2023-07-07T02:17:47.233Z,100902.94
2023-07-07T02:20:13.436Z,100904.78
2023-07-07T02:22:39.673Z,100910.28
2023-07-07T02:25:05.912Z,100915.75
2023-07-07T02:27:32.156Z,100914.28
2023-07-07T02:29:58.393Z,100915.28
2023-07-07T02:32:24.637Z,100910.34
2023-07-07T02:34:50.915Z,100911.56
2023-07-07T02:37:17.122Z,100914.25
2023-07-07T02:39:43.344Z,100914.53
2023-07-07T02:42:09.540Z,100914.84
2023-07-07T02:44:35.732Z,100917.66
2023-07-07T02:47:02.003Z,100924.81
2023-07-07T02:49:28.224Z,100922.34
2023-07-07T02:51:54.457Z,100925.19
2023-07-07T02:54:20.636Z,100926.25
2023-07-07T02:56:46.826Z,100925.53
2023-07-07T02:59:13.066Z,100918.69
2023-07-07T03:01:39.533Z,100922.25
2023-07-07T03:04:05.849Z,100924.22
2023-07-07T03:06:32.201Z,100923.53
2023-07-07T03:08:58.650Z,100930.44
2023-07-07T03:11:24.929Z,100926.06
2023-07-07T03:13:51.224Z,100915.81
2023-07-07T03:16:17.404Z,100929.47
2023-07-07T03:18:43.599Z,100942.25
2023-07-07T03:21:09.849Z,100927.47
2023-07-07T03:23:36.040Z,100928.09
2023-07-07T03:26:02.205Z,100923.94
2023-07-07T03:28:28.457Z,100927.19
2023-07-07T03:30:54.720Z,100939.41
2023-07-07T03:33:20.971Z,100939.69
2023-07-07T03:35:47.301Z,100943.28
2023-07-07T03:38:13.516Z,100933.34
2023-07-07T03:40:39.797Z,100938.84
2023-07-07T03:43:06.060Z,100939.22
2023-07-07T03:45:32.254Z,100947.06
2023-07-07T03:47:58.524Z,100947.97
2023-07-07T03:50:24.793Z,100955.78
2023-07-07T03:52:51.032Z,100956.44
2023-07-07T03:55:17.257Z,100952.94
2023-07-07T03:57:43.449Z,100955.41
2023-07-07T04:00:09.674Z,100952.00
2023-07-07T04:02:35.916Z,100950.72
2023-07-07T04:05:02.408Z,100957.69
2023-07-07T04:07:28.869Z,100955.19
2023-07-07T04:09:55.100Z,100950.66
2023-07-07T04:12:21.321Z,100957.72
2023-07-07T04:14:47.509Z,100954.06
2023-07-07T04:17:13.757Z,100961.75
2023-07-07T04:19:39.942Z,100962.53
2023-07-07T04:22:06.147Z,100962.47
2023-07-07T04:24:32.358Z,100963.97
2023-07-07T04:26:58.889Z,100964.53
2023-07-07T04:29:25.096Z,100964.78
2023-07-07T04:31:51.487Z,100961.03
2023-07-07T04:34:17.801Z,100962.50
2023-07-07T04:36:45.878Z,100961.09
2023-07-07T04:39:12.554Z,100964.28
2023-07-07T04:41:38.737Z,100961.34
2023-07-07T04:44:04.941Z,100959.09
2023-07-07T04:46:31.144Z,100968.38
2023-07-07T04:48:57.377Z,100965.22
2023-07-07T04:51:23.596Z,100967.22
2023-07-07T04:53:49.753Z,100957.72
2023-07-07T04:56:16.000Z,100963.94
2023-07-07T04:58:42.192Z,100968.56
2023-07-07T05:01:08.437Z,100964.63
2023-07-07T05:03:34.725Z,100966.34
2023-07-07T05:06:00.993Z,100958.28
2023-07-07T05:08:27.347Z,100958.09
2023-07-07T05:10:53.562Z,100958.03
2023-07-07T05:13:19.857Z,100949.94
2023-07-07T05:15:46.123Z,100952.47
2023-07-07T05:18:12.400Z,100957.25
2023-07-07T05:20:38.700Z,100948.34
2023-07-07T05:23:04.913Z,100946.28
2023-07-07T05:25:31.124Z,100952.16
2023-07-07T05:27:57.372Z,100953.44
2023-07-07T05:30:23.573Z,100952.13
2023-07-07T05:32:49.818Z,100945.88
2023-07-07T05:35:16.159Z,100945.56
2023-07-07T05:37:42.359Z,100961.72
2023-07-07T05:40:08.586Z,100951.00
2023-07-07T05:42:34.830Z,100950.59
2023-07-07T05:45:01.043Z,100950.16
2023-07-07T05:47:27.705Z,100950.16
2023-07-07T05:49:54.000Z,100949.66
2023-07-07T05:52:20.224Z,100958.47
2023-07-07T05:54:46.472Z,100955.44
2023-07-07T05:57:12.817Z,100948.81
2023-07-07T05:59:39.013Z,100952.69
2023-07-07T06:02:05.420Z,100943.69
2023-07-07T06:04:31.674Z,100949.78
2023-07-07T06:06:57.877Z,100946.28
2023-07-07T06:09:24.071Z,100936.91
2023-07-07T06:11:50.316Z,100943.94
2023-07-07T06:14:16.593Z,100939.59
2023-07-07T06:16:43.043Z,100952.00
2023-07-07T06:19:09.387Z,100938.31
2023-07-07T06:21:35.659Z,100946.16
2023-07-07T06:24:01.962Z,100946.97
2023-07-07T06:26:28.219Z,100949.59
2023-07-07T06:28:54.700Z,100947.41
2023-07-07T06:31:20.953Z,100948.56
2023-07-07T06:33:47.193Z,100940.81
2023-07-07T06:36:13.395Z,100950.28
2023-07-07T06:38:50.699Z,100944.63
2023-07-07T06:41:16.920Z,100946.03
2023-07-07T06:43:43.132Z,100951.91
2023-07-07T06:46:09.348Z,100955.88
2023-07-07T06:48:36.690Z,100957.84
2023-07-07T06:51:02.922Z,100952.53
2023-07-07T06:53:29.174Z,100951.13
2023-07-07T06:55:55.406Z,100952.75
2023-07-07T06:58:21.653Z,100956.44
2023-07-07T07:00:47.921Z,100956.75
2023-07-07T07:03:14.242Z,100957.50
2023-07-07T07:05:40.503Z,100949.94
2023-07-07T07:08:06.709Z,100951.81
2023-07-07T07:10:32.928Z,100948.44
2023-07-07T07:12:59.147Z,100952.09
2023-07-07T07:15:25.595Z,100939.50
2023-07-07T07:17:51.888Z,100947.13
2023-07-07T07:20:18.132Z,100948.94
2023-07-07T07:22:44.302Z,100946.41
2023-07-07T07:25:10.522Z,100943.75
2023-07-07T07:27:36.734Z,100946.41
2023-07-07T07:30:02.943Z,100939.03
2023-07-07T07:32:29.153Z,100939.34
2023-07-07T07:34:55.381Z,100941.91
2023-07-07T07:37:21.628Z,100939.84
2023-07-07T07:39:48.851Z,100938.88
2023-07-07T07:42:15.097Z,100936.25
2023-07-07T07:44:41.322Z,100934.41
2023-07-07T07:47:07.641Z,100933.41
2023-07-07T07:49:33.880Z,100936.78
2023-07-07T07:52:00.092Z,100937.81
2023-07-07T07:54:26.303Z,100940.56
2023-07-07T07:56:52.532Z,100931.03
2023-07-07T07:59:18.799Z,100934.22
2023-07-07T08:01:45.066Z,100936.31
2023-07-07T08:04:11.740Z,100930.88
2023-07-07T08:06:37.954Z,100935.31
2023-07-07T08:09:04.144Z,100933.66
2023-07-07T08:11:30.416Z,100931.94
2023-07-07T08:13:56.691Z,100923.81
2023-07-07T08:16:23.180Z,100931.00
2023-07-07T08:18:49.421Z,100928.13
2023-07-07T08:21:16.826Z,100929.66
2023-07-07T08:23:43.023Z,100932.84
2023-07-07T08:31:14.620Z,100931.63
2023-07-07T08:33:53.786Z,100929.91
2023-07-07T08:36:23.570Z,100935.31
2023-07-07T08:38:49.779Z,100930.81
2023-07-07T08:41:15.990Z,100928.50
2023-07-07T08:43:42.203Z,100921.81
2023-07-07T08:46:08.513Z,100917.09
2023-07-07T08:48:34.803Z,100916.44
2023-07-07T08:51:01.247Z,100920.78
2023-07-07T08:53:27.577Z,100911.31
2023-07-07T08:55:53.804Z,100906.75
2023-07-07T08:58:29.152Z,100913.78
2023-07-07T09:00:56.578Z,100910.97
2023-07-07T09:03:23.088Z,100916.81
2023-07-07T09:05:49.389Z,100918.16
2023-07-07T09:08:15.621Z,100906.75
2023-07-07T09:10:41.902Z,100909.38
2023-07-07T09:13:08.166Z,100905.41
2023-07-07T09:15:34.426Z,100905.56
2023-07-07T09:18:00.683Z,100906.06
2023-07-07T09:20:27.028Z,100901.34
2023-07-07T09:22:53.738Z,100899.97
2023-07-07T09:25:20.120Z,100901.81
2023-07-07T09:27:46.381Z,100895.16
2023-07-07T09:30:12.704Z,100901.91
2023-07-07T09:32:39.008Z,100899.41
2023-07-07T09:35:05.359Z,100889.16
2023-07-07T09:37:31.600Z,100893.44
2023-07-07T09:40:00.849Z,100886.09
2023-07-07T09:42:27.630Z,100882.63
2023-07-07T09:44:53.894Z,100887.06
2023-07-07T09:47:23.148Z,100876.47
2023-07-07T09:49:49.449Z,100882.63
2023-07-07T09:52:15.626Z,100875.06
2023-07-07T09:54:41.878Z,100870.34
2023-07-07T09:57:08.089Z,100861.25
2023-07-07T09:59:34.312Z,100865.75
2023-07-07T10:02:00.573Z,100864.25
2023-07-07T10:04:26.930Z,100856.94
2023-07-07T10:06:53.182Z,100856.06
2023-07-07T10:09:19.446Z,100858.06
2023-07-07T10:14:14.986Z,100854.75
2023-07-07T10:16:41.192Z,100846.06
2023-07-07T10:19:07.568Z,100852.44
2023-07-07T10:21:33.805Z,100841.38
2023-07-07T10:24:00.573Z,100840.72
2023-07-07T10:26:27.908Z,100835.16
2023-07-07T10:28:54.263Z,100824.34
2023-07-07T10:31:20.892Z,100829.53
2023-07-07T10:33:47.092Z,100828.41
2023-07-07T10:39:02.427Z,100821.16
2023-07-07T10:41:28.894Z,100824.25
2023-07-07T10:43:55.353Z,100820.72
2023-07-07T10:46:21.661Z,100812.44
2023-07-07T10:48:47.926Z,100822.28
2023-07-07T10:51:14.292Z,100817.09
2023-07-07T10:53:40.524Z,100827.66
2023-07-07T10:56:06.745Z,100816.56
2023-07-07T10:58:33.012Z,100811.56
2023-07-07T11:00:59.625Z,100807.22
2023-07-07T11:03:27.325Z,100813.63
2023-07-07T11:06:03.347Z,100806.66
2023-07-07T11:08:31.670Z,100812.06
2023-07-07T11:10:58.234Z,100805.03
2023-07-07T11:13:24.731Z,100807.72
2023-07-07T11:15:50.980Z,100810.94
2023-07-07T11:18:17.240Z,100802.34
2023-07-07T11:20:43.491Z,100795.97
2023-07-07T11:23:09.708Z,100792.22
2023-07-07T11:25:35.997Z,100795.72
2023-07-07T11:28:02.408Z,100783.84
2023-07-07T11:30:28.890Z,100793.41
2023-07-07T11:32:55.140Z,100803.75
2023-07-07T11:35:21.365Z,100785.91
2023-07-07T11:37:47.840Z,100793.69
2023-07-07T11:40:14.122Z,100787.25
2023-07-07T11:42:40.533Z,100786.84
2023-07-07T11:45:06.965Z,100778.50
2023-07-07T11:47:33.322Z,100783.47
2023-07-07T11:49:59.609Z,100780.75
2023-07-07T11:52:25.781Z,100783.47
2023-07-07T11:54:51.962Z,100776.88
2023-07-07T11:57:18.230Z,100767.91
2023-07-07T11:59:44.490Z,100767.09
2023-07-07T12:02:10.802Z,100749.69
2023-07-07T12:04:37.286Z,100754.28
2023-07-07T12:07:03.674Z,100765.16
2023-07-07T12:09:29.962Z,100759.13
2023-07-07T12:11:56.186Z,100759.34
2023-07-07T12:14:22.442Z,100756.84
2023-07-07T12:16:48.939Z,100762.47
2023-07-07T12:19:15.175Z,100751.66
2023-07-07T12:21:41.404Z,100736.81
2023-07-07T12:24:07.699Z,100741.88
2023-07-07T12:26:36.636Z,100754.44
2023-07-07T12:29:03.597Z,100741.25
2023-07-07T12:31:29.920Z,100748.44
2023-07-07T12:33:56.116Z,100738.44
2023-07-07T12:36:22.454Z,100739.09
2023-07-07T12:38:48.645Z,100732.84
2023-07-07T12:41:14.908Z,100731.06
2023-07-07T12:43:41.164Z,100728.16
2023-07-07T12:46:07.650Z,100729.41
2023-07-07T12:48:35.832Z,100734.38
2023-07-07T12:51:02.244Z,100722.75
2023-07-07T12:53:29.044Z,100722.56
2023-07-07T12:55:57.473Z,100718.41
2023-07-07T12:58:23.942Z,100715.69
2023-07-07T13:00:50.296Z,100717.78
2023-07-07T13:03:16.748Z,100716.72
2023-07-07T13:05:51.492Z,100715.69
2023-07-07T13:08:17.775Z,100721.50
2023-07-07T13:10:43.988Z,100712.16
2023-07-07T13:13:10.202Z,100706.09
2023-07-07T13:15:36.542Z,100695.50
2023-07-07T13:18:02.899Z,100700.50
2023-07-07T13:20:29.131Z,100698.03
2023-07-07T13:22:55.604Z,100689.28
2023-07-07T13:25:21.867Z,100686.56
2023-07-07T13:27:48.127Z,100692.78
2023-07-07T13:30:14.538Z,100682.38
2023-07-07T13:32:40.874Z,100682.09
2023-07-07T13:35:07.180Z,100665.78
2023-07-07T13:37:33.439Z,100675.69
2023-07-07T13:39:59.703Z,100678.34
2023-07-07T13:42:25.966Z,100673.06
2023-07-07T13:44:54.468Z,100665.38
2023-07-07T13:47:21.003Z,100647.66
2023-07-07T13:49:47.297Z,100659.50
2023-07-07T13:55:03.828Z,100663.34
2023-07-07T13:57:30.052Z,100653.63
2023-07-07T13:59:56.274Z,100665.41
2023-07-07T14:02:25.628Z,100653.22
2023-07-07T14:04:54.473Z,100658.09
2023-07-07T14:07:21.522Z,100636.34
2023-07-07T14:09:47.983Z,100644.94
2023-07-07T14:12:14.365Z,100637.84
2023-07-07T14:14:40.693Z,100623.97
2023-07-07T14:17:07.125Z,100631.31
2023-07-07T14:19:33.382Z,100630.47
2023-07-07T14:21:59.612Z,100633.81
2023-07-07T14:24:26.043Z,100626.41
2023-07-07T14:26:52.312Z,100624.50
2023-07-07T14:29:18.586Z,100624.38
2023-07-07T14:31:44.929Z,100628.00
2023-07-07T14:34:11.210Z,100624.28
2023-07-07T14:36:37.402Z,100625.06
2023-07-07T14:39:03.692Z,100624.72
2023-07-07T14:41:30.082Z,100626.63
2023-07-07T14:43:56.334Z,100611.16
2023-07-07T14:46:22.585Z,100618.28
2023-07-07T14:48:48.824Z,100597.72
2023-07-07T14:51:15.025Z,100605.50
2023-07-07T14:53:41.288Z,100604.13
2023-07-07T14:56:07.472Z,100601.69
2023-07-07T14:58:33.688Z,100591.28
2023-07-07T15:01:00.116Z,100602.59
2023-07-07T15:03:26.648Z,100609.63
2023-07-07T15:05:56.111Z,100602.00
2023-07-07T15:08:22.448Z,100590.03
2023-07-07T15:10:48.992Z,100591.38
2023-07-07T15:13:15.220Z,100579.63
2023-07-07T15:15:41.495Z,100587.78
2023-07-07T15:18:07.808Z,100590.44
2023-07-07T15:20:34.077Z,100585.94
2023-07-07T15:23:00.321Z,100590.41
2023-07-07T15:25:26.583Z,100584.09
2023-07-07T15:27:52.779Z,100570.56
2023-07-07T15:30:18.992Z,100578.47
2023-07-07T15:32:45.370Z,100564.84
2023-07-07T15:35:11.613Z,100566.94
2023-07-07T15:37:37.782Z,100564.38
2023-07-07T15:40:04.044Z,100562.88
2023-07-07T15:42:30.307Z,100560.75
2023-07-07T15:44:56.528Z,100554.97
2023-07-07T15:47:22.847Z,100552.94
2023-07-07T15:49:49.101Z,100552.25
2023-07-07T15:52:15.542Z,100554.81
2023-07-07T15:54:41.935Z,100553.72
2023-07-07T15:57:08.127Z,100553.88
2023-07-07T15:59:34.426Z,100558.00
2023-07-07T16:02:00.731Z,100553.09
2023-07-07T16:04:27.068Z,100541.34
2023-07-07T16:06:53.684Z,100546.34
2023-07-07T16:09:20.031Z,100541.84
2023-07-07T16:11:46.439Z,100534.72
2023-07-07T16:14:14.804Z,100540.69
2023-07-07T16:16:42.990Z,100540.75
2023-07-07T16:19:09.247Z,100540.44
2023-07-07T16:21:37.196Z,100532.78
2023-07-07T16:24:03.448Z,100535.88
2023-07-07T16:26:30.741Z,100530.41
2023-07-07T16:28:57.089Z,100537.38
2023-07-07T16:31:23.354Z,100527.03
2023-07-07T16:33:49.590Z,100535.47
2023-07-07T16:36:15.961Z,100523.72
2023-07-07T16:38:43.379Z,100522.50
2023-07-07T16:41:09.683Z,100531.63
2023-07-07T16:43:35.909Z,100525.75
2023-07-07T16:46:02.163Z,100525.41
2023-07-07T16:48:38.026Z,100517.31
2023-07-07T16:51:12.217Z,100521.63
2023-07-07T16:53:38.933Z,100513.00
2023-07-07T16:56:05.304Z,100523.53
2023-07-07T16:58:33.554Z,100517.38
2023-07-07T17:01:00.050Z,100518.84
2023-07-07T17:03:26.796Z,100519.41
2023-07-07T17:05:53.199Z,100529.91
2023-07-07T17:08:19.478Z,100515.09
2023-07-07T17:10:45.838Z,100515.78
2023-07-07T17:13:14.276Z,100512.66
2023-07-07T17:15:44.669Z,100509.47
2023-07-07T17:18:11.081Z,100510.50
2023-07-07T17:20:37.296Z,100513.66
2023-07-07T17:23:04.556Z,100513.34
2023-07-07T17:25:30.795Z,100516.03
2023-07-07T17:27:59.132Z,100526.63
2023-07-07T17:30:25.359Z,100517.31
2023-07-07T17:32:51.629Z,100527.44
2023-07-07T17:35:17.845Z,100518.69
2023-07-07T17:37:46.135Z,100520.53
2023-07-07T17:40:12.392Z,100517.41
2023-07-07T17:42:38.762Z,100516.94
2023-07-07T17:45:05.019Z,100511.94
2023-07-07T17:47:31.425Z,100508.22
2023-07-07T17:49:57.690Z,100509.25
2023-07-07T17:52:23.959Z,100510.66
2023-07-07T17:54:50.318Z,100507.31
2023-07-07T17:57:16.610Z,100509.38
2023-07-07T17:59:42.904Z,100515.16
2023-07-07T18:02:09.362Z,100513.03
2023-07-07T18:04:35.817Z,100511.72
2023-07-07T18:07:02.245Z,100519.84
2023-07-07T18:09:28.602Z,100513.81
2023-07-07T18:11:54.789Z,100520.63
2023-07-07T18:14:21.002Z,100520.41
2023-07-07T18:16:55.802Z,100497.34
2023-07-07T18:20:32.370Z,100516.78
2023-07-07T18:22:18.183Z,100522.38
2023-07-07T18:24:44.701Z,100515.22
2023-07-07T18:27:11.090Z,100513.16
2023-07-07T18:29:37.745Z,100519.31
2023-07-07T18:32:04.070Z,100524.59
2023-07-07T18:34:30.256Z,100518.63
2023-07-07T18:36:56.458Z,100521.47
2023-07-07T18:39:22.709Z,100518.03
2023-07-07T18:41:48.960Z,100516.69
2023-07-07T18:44:15.240Z,100528.38
2023-07-07T18:46:41.572Z,100516.44
2023-07-07T18:49:07.827Z,100515.50
2023-07-07T18:51:34.166Z,100518.78
2023-07-07T18:54:00.418Z,100524.88
2023-07-07T18:56:26.678Z,100528.16
2023-07-07T18:58:53.020Z,100521.22
2023-07-07T19:01:21.400Z,100519.19
2023-07-07T19:03:47.662Z,100519.38
2023-07-07T19:06:13.920Z,100517.78
2023-07-07T19:08:40.254Z,100515.72
2023-07-07T19:11:06.493Z,100523.59
2023-07-07T19:13:32.887Z,100528.47
2023-07-07T19:15:59.352Z,100530.00
2023-07-07T19:18:25.782Z,100523.06
2023-07-07T19:20:52.025Z,100528.72
2023-07-07T19:23:18.269Z,100533.00
2023-07-07T19:25:44.552Z,100535.06
2023-07-07T19:28:11.336Z,100531.56
2023-07-07T19:30:37.821Z,100533.09
2023-07-07T19:33:04.113Z,100532.28
2023-07-07T19:35:30.370Z,100531.44
2023-07-07T19:37:56.701Z,100537.44
2023-07-07T19:40:23.114Z,100539.94
2023-07-07T19:42:49.381Z,100542.09
2023-07-07T19:45:15.603Z,100540.44
2023-07-07T19:47:41.872Z,100541.00
2023-07-07T19:50:08.235Z,100543.41
2023-07-07T19:52:36.421Z,100546.13
2023-07-07T19:55:02.873Z,100548.84
2023-07-07T19:57:29.141Z,100557.06
2023-07-07T19:59:55.319Z,100556.09
2023-07-07T20:02:21.756Z,100548.72
2023-07-07T20:04:48.178Z,100558.75
2023-07-07T20:07:14.428Z,100558.22
2023-07-07T20:09:40.866Z,100558.34
2023-07-07T20:12:07.144Z,100554.84
2023-07-07T20:14:33.491Z,100560.19
2023-07-07T20:16:59.764Z,100569.41
2023-07-07T20:19:26.079Z,100570.28
2023-07-07T20:21:52.620Z,100575.47
2023-07-07T20:24:19.040Z,100561.72
2023-07-07T20:26:47.235Z,100569.25
2023-07-07T20:29:13.913Z,100560.75
2023-07-07T20:31:40.217Z,100563.94
2023-07-07T20:34:06.542Z,100562.81
2023-07-07T20:36:32.782Z,100559.47
2023-07-07T20:38:59.009Z,100563.13
2023-07-07T20:41:25.234Z,100561.84
2023-07-07T20:43:51.457Z,100553.81
2023-07-07T20:46:17.711Z,100551.31
2023-07-07T20:48:43.930Z,100553.47
2023-07-07T20:51:10.148Z,100553.13
2023-07-07T20:53:36.374Z,100560.28
2023-07-07T20:56:02.648Z,100554.78
2023-07-07T20:58:28.950Z,100554.78
2023-07-07T21:00:55.142Z,100553.47
2023-07-07T21:03:21.527Z,100557.81
2023-07-07T21:05:47.813Z,100556.34
2023-07-07T21:08:14.049Z,100565.69
2023-07-07T21:10:40.311Z,100570.69
2023-07-07T21:13:06.551Z,100563.84
2023-07-07T21:15:32.787Z,100564.84
2023-07-07T21:17:59.035Z,100565.50
2023-07-07T21:20:25.300Z,100562.16
2023-07-07T21:22:51.801Z,100566.81
2023-07-07T21:25:17.987Z,100570.00
2023-07-07T21:27:44.243Z,100573.50
2023-07-07T21:30:10.471Z,100564.31
2023-07-07T21:32:36.679Z,100571.31
2023-07-07T21:35:02.896Z,100567.44
2023-07-07T21:37:29.151Z,100575.28
2023-07-07T21:39:55.353Z,100574.25
2023-07-07T21:42:21.581Z,100583.97
2023-07-07T21:44:47.881Z,100577.28
2023-07-07T21:47:14.242Z,100569.59
2023-07-07T21:49:40.473Z,100569.75
2023-07-07T21:52:06.709Z,100563.69
2023-07-07T21:54:32.965Z,100562.91
2023-07-07T21:56:59.171Z,100562.41
2023-07-07T21:59:25.386Z,100562.03
2023-07-07T22:01:51.666Z,100555.38
2023-07-07T22:04:17.890Z,100570.06
2023-07-07T22:06:44.075Z,100561.59
2023-07-07T22:09:10.294Z,100568.41
2023-07-07T22:11:36.664Z,100567.44
2023-07-07T22:14:02.928Z,100569.94
2023-07-07T22:16:29.228Z,100567.09
2023-07-07T22:18:56.061Z,100570.75
2023-07-07T22:21:22.442Z,100565.56
2023-07-07T22:23:48.651Z,100562.09
2023-07-07T22:26:14.860Z,100557.56
2023-07-07T22:28:41.074Z,100568.41
2023-07-07T22:31:07.239Z,100558.41
2023-07-07T22:33:33.490Z,100563.41
2023-07-07T22:35:59.893Z,100569.09
2023-07-07T22:38:26.181Z,100565.22
2023-07-07T22:40:52.421Z,100562.25
2023-07-07T22:43:18.645Z,100568.75
2023-07-07T22:45:44.860Z,100567.94
2023-07-07T22:48:11.112Z,100570.44
2023-07-07T22:50:37.332Z,100571.06
2023-07-07T22:53:03.550Z,100571.75
2023-07-07T22:55:29.739Z,100565.28
2023-07-07T22:57:55.972Z,100566.59
2023-07-07T23:00:22.170Z,100563.25
2023-07-07T23:02:48.491Z,100565.38
2023-07-07T23:05:14.773Z,100568.75
2023-07-07T23:07:40.975Z,100571.00
2023-07-07T23:10:07.196Z,100568.00
2023-07-07T23:12:33.405Z,100567.47
2023-07-07T23:14:59.620Z,100560.94
2023-07-07T23:17:25.884Z,100570.63
2023-07-07T23:19:52.090Z,100564.41
2023-07-07T23:22:18.335Z,100567.69
2023-07-07T23:24:44.566Z,100565.78
2023-07-07T23:27:10.791Z,100564.44
2023-07-07T23:29:36.980Z,100552.09
2023-07-07T23:32:03.190Z,100560.47
2023-07-07T23:34:29.451Z,100557.31
2023-07-07T23:36:55.696Z,100560.50
2023-07-07T23:39:21.877Z,100555.19
2023-07-07T23:41:48.048Z,100558.72
2023-07-07T23:44:14.268Z,100555.72
2023-07-07T23:46:40.523Z,100546.50
2023-07-07T23:49:06.829Z,100554.16
2023-07-07T23:51:33.088Z,100553.63
2023-07-07T23:53:59.275Z,100549.25
2023-07-07T23:56:25.690Z,100553.00
2023-07-07T23:58:51.989Z,100554.56
